sensor_id;sensor_type;location;lat;lon;timestamp;temperature;humidity
61253;DHT22;47127;47.516;8.596;2022-09-14T00:00:51;20.90;99.90
61253;DHT22;47127;47.516;8.596;2022-09-14T00:03:17;20.80;99.90
61253;DHT22;47127;47.516;8.596;2022-09-14T00:05:43;20.70;99.90
61253;DHT22;47127;47.516;8.596;2022-09-14T00:08:10;20.60;99.90
61253;DHT22;47127;47.516;8.596;2022-09-14T00:10:40;20.50;99.90
61253;DHT22;47127;47.516;8.596;2022-09-14T00:13:06;20.50;99.90
61253;DHT22;47127;47.516;8.596;2022-09-14T00:15:37;20.40;99.90
61253;DHT22;47127;47.516;8.596;2022-09-14T00:18:04;20.50;99.90
61253;DHT22;47127;47.516;8.596;2022-09-14T00:20:30;20.40;99.90
61253;DHT22;47127;47.516;8.596;2022-09-14T00:22:56;20.40;99.90
61253;DHT22;47127;47.516;8.596;2022-09-14T00:25:22;20.40;99.90
61253;DHT22;47127;47.516;8.596;2022-09-14T00:27:48;20.40;99.90
61253;DHT22;47127;47.516;8.596;2022-09-14T00:30:13;20.50;99.90
61253;DHT22;47127;47.516;8.596;2022-09-14T00:32:39;20.50;99.90
61253;DHT22;47127;47.516;8.596;2022-09-14T00:35:05;20.60;99.90
61253;DHT22;47127;47.516;8.596;2022-09-14T00:37:31;20.60;99.90
61253;DHT22;47127;47.516;8.596;2022-09-14T00:39:56;20.60;99.90
61253;DHT22;47127;47.516;8.596;2022-09-14T00:42:22;20.70;99.90
61253;DHT22;47127;47.516;8.596;2022-09-14T00:47:15;20.70;99.90
61253;DHT22;47127;47.516;8.596;2022-09-14T00:49:42;20.60;99.90
61253;DHT22;47127;47.516;8.596;2022-09-14T00:52:15;20.60;99.90
61253;DHT22;47127;47.516;8.596;2022-09-14T00:54:52;20.70;99.90
61253;DHT22;47127;47.516;8.596;2022-09-14T00:57:19;20.70;99.90
61253;DHT22;47127;47.516;8.596;2022-09-14T00:59:48;20.70;99.90
61253;DHT22;47127;47.516;8.596;2022-09-14T01:02:15;20.70;99.90
61253;DHT22;47127;47.516;8.596;2022-09-14T01:04:42;20.80;99.90
61253;DHT22;47127;47.516;8.596;2022-09-14T01:09:48;20.70;99.90
61253;DHT22;47127;47.516;8.596;2022-09-14T01:15:16;20.80;99.90
61253;DHT22;47127;47.516;8.596;2022-09-14T01:21:09;20.70;99.90
61253;DHT22;47127;47.516;8.596;2022-09-14T01:30:07;20.60;99.90
61253;DHT22;47127;47.516;8.596;2022-09-14T01:32:47;20.70;99.90
61253;DHT22;47127;47.516;8.596;2022-09-14T01:35:24;20.70;99.90
61253;DHT22;47127;47.516;8.596;2022-09-14T01:37:59;20.70;99.90
61253;DHT22;47127;47.516;8.596;2022-09-14T01:40:33;20.70;99.90
61253;DHT22;47127;47.516;8.596;2022-09-14T01:45:36;20.70;99.90
61253;DHT22;47127;47.516;8.596;2022-09-14T01:48:06;20.70;99.90
61253;DHT22;47127;47.516;8.596;2022-09-14T01:50:38;20.70;99.90
61253;DHT22;47127;47.516;8.596;2022-09-14T01:53:18;20.80;99.90
61253;DHT22;47127;47.516;8.596;2022-09-14T01:55:52;20.80;99.90
61253;DHT22;47127;47.516;8.596;2022-09-14T01:58:34;20.80;99.90
61253;DHT22;47127;47.516;8.596;2022-09-14T02:01:02;20.80;99.90
61253;DHT22;47127;47.516;8.596;2022-09-14T02:03:36;20.80;99.90
61253;DHT22;47127;47.516;8.596;2022-09-14T02:06:31;20.80;99.90
61253;DHT22;47127;47.516;8.596;2022-09-14T02:08:58;21.00;99.90
61253;DHT22;47127;47.516;8.596;2022-09-14T02:11:24;21.10;99.90
61253;DHT22;47127;47.516;8.596;2022-09-14T02:13:50;21.10;99.90
61253;DHT22;47127;47.516;8.596;2022-09-14T02:16:16;21.20;99.90
61253;DHT22;47127;47.516;8.596;2022-09-14T02:18:42;21.40;99.90
61253;DHT22;47127;47.516;8.596;2022-09-14T02:21:15;21.50;99.90
61253;DHT22;47127;47.516;8.596;2022-09-14T02:23:41;21.50;99.90
61253;DHT22;47127;47.516;8.596;2022-09-14T02:26:08;21.70;99.90
61253;DHT22;47127;47.516;8.596;2022-09-14T02:28:33;21.70;99.90
61253;DHT22;47127;47.516;8.596;2022-09-14T02:31:26;21.90;99.90
61253;DHT22;47127;47.516;8.596;2022-09-14T02:36:51;22.10;99.90
61253;DHT22;47127;47.516;8.596;2022-09-14T02:45:31;22.10;99.90
61253;DHT22;47127;47.516;8.596;2022-09-14T02:56:09;22.00;99.90
61253;DHT22;47127;47.516;8.596;2022-09-14T02:58:40;22.00;99.90
61253;DHT22;47127;47.516;8.596;2022-09-14T03:01:08;22.10;99.90
61253;DHT22;47127;47.516;8.596;2022-09-14T03:03:34;22.00;99.90
61253;DHT22;47127;47.516;8.596;2022-09-14T03:06:00;22.10;99.90
61253;DHT22;47127;47.516;8.596;2022-09-14T03:08:26;22.00;99.90
61253;DHT22;47127;47.516;8.596;2022-09-14T03:10:52;22.00;99.90
61253;DHT22;47127;47.516;8.596;2022-09-14T03:13:18;22.00;99.90
61253;DHT22;47127;47.516;8.596;2022-09-14T03:15:44;21.90;99.90
61253;DHT22;47127;47.516;8.596;2022-09-14T03:18:09;21.90;99.90
61253;DHT22;47127;47.516;8.596;2022-09-14T03:20:35;21.90;99.90
61253;DHT22;47127;47.516;8.596;2022-09-14T03:23:02;21.90;99.90
61253;DHT22;47127;47.516;8.596;2022-09-14T03:25:29;21.90;99.90
61253;DHT22;47127;47.516;8.596;2022-09-14T03:27:57;21.90;99.90
61253;DHT22;47127;47.516;8.596;2022-09-14T03:30:24;21.90;99.90
61253;DHT22;47127;47.516;8.596;2022-09-14T03:32:50;21.80;99.90
61253;DHT22;47127;47.516;8.596;2022-09-14T03:35:16;21.80;99.90
61253;DHT22;47127;47.516;8.596;2022-09-14T03:37:43;21.80;99.90
61253;DHT22;47127;47.516;8.596;2022-09-14T03:40:10;22.00;99.90
61253;DHT22;47127;47.516;8.596;2022-09-14T03:42:44;21.90;99.90
61253;DHT22;47127;47.516;8.596;2022-09-14T03:45:11;21.90;99.90
61253;DHT22;47127;47.516;8.596;2022-09-14T03:47:37;21.90;99.90
61253;DHT22;47127;47.516;8.596;2022-09-14T03:50:03;21.90;99.90
61253;DHT22;47127;47.516;8.596;2022-09-14T03:52:29;21.80;99.90
61253;DHT22;47127;47.516;8.596;2022-09-14T03:54:55;21.80;99.90
61253;DHT22;47127;47.516;8.596;2022-09-14T03:57:20;21.80;99.90
61253;DHT22;47127;47.516;8.596;2022-09-14T03:59:46;21.80;99.90
61253;DHT22;47127;47.516;8.596;2022-09-14T04:02:11;21.80;99.90
61253;DHT22;47127;47.516;8.596;2022-09-14T04:04:37;21.80;99.90
61253;DHT22;47127;47.516;8.596;2022-09-14T04:07:02;21.80;99.90
61253;DHT22;47127;47.516;8.596;2022-09-14T04:09:28;21.80;99.90
61253;DHT22;47127;47.516;8.596;2022-09-14T04:11:53;21.70;99.90
61253;DHT22;47127;47.516;8.596;2022-09-14T04:14:19;21.70;99.90
61253;DHT22;47127;47.516;8.596;2022-09-14T04:16:45;21.80;99.90
61253;DHT22;47127;47.516;8.596;2022-09-14T04:19:11;21.80;99.90
61253;DHT22;47127;47.516;8.596;2022-09-14T04:21:36;21.80;99.90
61253;DHT22;47127;47.516;8.596;2022-09-14T04:24:02;21.70;99.90
61253;DHT22;47127;47.516;8.596;2022-09-14T04:26:29;21.70;99.90
61253;DHT22;47127;47.516;8.596;2022-09-14T04:28:55;21.70;99.90
61253;DHT22;47127;47.516;8.596;2022-09-14T04:31:22;21.70;99.90
61253;DHT22;47127;47.516;8.596;2022-09-14T04:33:48;21.60;99.90
61253;DHT22;47127;47.516;8.596;2022-09-14T04:36:17;21.60;99.90
61253;DHT22;47127;47.516;8.596;2022-09-14T04:38:43;21.60;99.90
61253;DHT22;47127;47.516;8.596;2022-09-14T04:41:15;21.60;99.90
61253;DHT22;47127;47.516;8.596;2022-09-14T04:43:42;21.60;99.90
61253;DHT22;47127;47.516;8.596;2022-09-14T04:46:13;21.60;99.90
61253;DHT22;47127;47.516;8.596;2022-09-14T04:48:40;21.60;99.90
61253;DHT22;47127;47.516;8.596;2022-09-14T04:51:19;21.60;99.90
61253;DHT22;47127;47.516;8.596;2022-09-14T04:53:47;21.60;99.90
61253;DHT22;47127;47.516;8.596;2022-09-14T04:56:14;21.50;99.90
61253;DHT22;47127;47.516;8.596;2022-09-14T04:58:48;21.50;99.90
61253;DHT22;47127;47.516;8.596;2022-09-14T05:01:23;21.50;99.90
61253;DHT22;47127;47.516;8.596;2022-09-14T05:03:49;21.50;99.90
61253;DHT22;47127;47.516;8.596;2022-09-14T05:06:18;21.40;99.90
61253;DHT22;47127;47.516;8.596;2022-09-14T05:08:44;21.40;99.90
61253;DHT22;47127;47.516;8.596;2022-09-14T05:11:13;21.30;99.90
61253;DHT22;47127;47.516;8.596;2022-09-14T05:13:39;21.20;99.90
61253;DHT22;47127;47.516;8.596;2022-09-14T05:16:09;21.10;99.90
61253;DHT22;47127;47.516;8.596;2022-09-14T05:18:35;21.10;99.90
61253;DHT22;47127;47.516;8.596;2022-09-14T05:21:05;21.10;99.90
61253;DHT22;47127;47.516;8.596;2022-09-14T05:23:31;21.00;99.90
61253;DHT22;47127;47.516;8.596;2022-09-14T05:25:58;21.00;99.90
61253;DHT22;47127;47.516;8.596;2022-09-14T05:28:24;21.00;99.90
61253;DHT22;47127;47.516;8.596;2022-09-14T05:30:50;21.10;99.90
61253;DHT22;47127;47.516;8.596;2022-09-14T05:33:15;21.10;99.90
61253;DHT22;47127;47.516;8.596;2022-09-14T05:35:41;21.10;99.90
61253;DHT22;47127;47.516;8.596;2022-09-14T05:38:06;21.10;99.90
61253;DHT22;47127;47.516;8.596;2022-09-14T05:40:32;21.10;99.90
61253;DHT22;47127;47.516;8.596;2022-09-14T05:42:58;21.10;99.90
61253;DHT22;47127;47.516;8.596;2022-09-14T05:45:23;21.10;99.90
61253;DHT22;47127;47.516;8.596;2022-09-14T05:47:49;21.20;99.90
61253;DHT22;47127;47.516;8.596;2022-09-14T05:50:14;21.30;99.90
61253;DHT22;47127;47.516;8.596;2022-09-14T05:52:40;21.30;99.90
61253;DHT22;47127;47.516;8.596;2022-09-14T05:55:06;21.30;99.90
61253;DHT22;47127;47.516;8.596;2022-09-14T05:57:32;21.30;99.90
61253;DHT22;47127;47.516;8.596;2022-09-14T05:59:57;21.30;99.90
61253;DHT22;47127;47.516;8.596;2022-09-14T06:02:23;21.30;99.90
61253;DHT22;47127;47.516;8.596;2022-09-14T06:04:49;21.30;99.90
61253;DHT22;47127;47.516;8.596;2022-09-14T06:07:14;21.30;99.90
61253;DHT22;47127;47.516;8.596;2022-09-14T06:09:40;21.30;99.90
61253;DHT22;47127;47.516;8.596;2022-09-14T06:12:05;21.40;99.90
61253;DHT22;47127;47.516;8.596;2022-09-14T06:14:31;21.40;99.90
61253;DHT22;47127;47.516;8.596;2022-09-14T06:16:58;21.40;99.90
61253;DHT22;47127;47.516;8.596;2022-09-14T06:19:24;21.40;99.90
61253;DHT22;47127;47.516;8.596;2022-09-14T06:21:49;21.40;99.90
61253;DHT22;47127;47.516;8.596;2022-09-14T06:24:15;21.50;99.90
61253;DHT22;47127;47.516;8.596;2022-09-14T06:26:41;21.50;99.90
61253;DHT22;47127;47.516;8.596;2022-09-14T06:29:06;21.60;99.90
61253;DHT22;47127;47.516;8.596;2022-09-14T06:31:32;21.70;99.90
61253;DHT22;47127;47.516;8.596;2022-09-14T06:33:58;21.70;99.90
61253;DHT22;47127;47.516;8.596;2022-09-14T06:36:25;21.60;99.90
61253;DHT22;47127;47.516;8.596;2022-09-14T06:38:52;21.60;99.90
61253;DHT22;47127;47.516;8.596;2022-09-14T06:41:20;21.60;99.90
61253;DHT22;47127;47.516;8.596;2022-09-14T06:43:46;21.60;99.90
61253;DHT22;47127;47.516;8.596;2022-09-14T06:49:02;21.80;99.90
61253;DHT22;47127;47.516;8.596;2022-09-14T06:51:34;21.80;99.90
61253;DHT22;47127;47.516;8.596;2022-09-14T06:54:00;21.80;99.90
61253;DHT22;47127;47.516;8.596;2022-09-14T06:56:27;21.80;99.90
61253;DHT22;47127;47.516;8.596;2022-09-14T06:58:53;21.80;99.90
61253;DHT22;47127;47.516;8.596;2022-09-14T07:01:20;21.80;99.90
61253;DHT22;47127;47.516;8.596;2022-09-14T07:03:46;21.90;99.90
61253;DHT22;47127;47.516;8.596;2022-09-14T07:06:14;21.90;99.90
61253;DHT22;47127;47.516;8.596;2022-09-14T07:08:40;21.90;99.90
61253;DHT22;47127;47.516;8.596;2022-09-14T07:11:08;21.90;99.90
61253;DHT22;47127;47.516;8.596;2022-09-14T07:13:34;22.00;99.90
61253;DHT22;47127;47.516;8.596;2022-09-14T07:15:59;22.00;99.90
61253;DHT22;47127;47.516;8.596;2022-09-14T07:18:26;22.10;99.90
61253;DHT22;47127;47.516;8.596;2022-09-14T07:23:30;22.10;99.90
61253;DHT22;47127;47.516;8.596;2022-09-14T07:26:08;22.10;99.90
61253;DHT22;47127;47.516;8.596;2022-09-14T07:28:35;22.10;99.90
61253;DHT22;47127;47.516;8.596;2022-09-14T07:31:01;22.20;99.90
61253;DHT22;47127;47.516;8.596;2022-09-14T07:33:27;22.20;99.90
61253;DHT22;47127;47.516;8.596;2022-09-14T07:35:53;22.20;99.90
61253;DHT22;47127;47.516;8.596;2022-09-14T07:38:19;22.30;99.90
61253;DHT22;47127;47.516;8.596;2022-09-14T07:40:44;22.30;99.90
61253;DHT22;47127;47.516;8.596;2022-09-14T07:43:10;22.30;99.90
61253;DHT22;47127;47.516;8.596;2022-09-14T07:45:36;22.40;99.90
61253;DHT22;47127;47.516;8.596;2022-09-14T07:48:02;22.50;99.90
61253;DHT22;47127;47.516;8.596;2022-09-14T07:50:28;22.50;99.90
61253;DHT22;47127;47.516;8.596;2022-09-14T07:52:53;22.60;99.90
61253;DHT22;47127;47.516;8.596;2022-09-14T07:55:19;22.50;99.90
61253;DHT22;47127;47.516;8.596;2022-09-14T07:57:45;22.50;99.90
61253;DHT22;47127;47.516;8.596;2022-09-14T08:00:12;22.50;99.90
61253;DHT22;47127;47.516;8.596;2022-09-14T08:02:39;22.50;99.90
61253;DHT22;47127;47.516;8.596;2022-09-14T08:05:05;22.50;99.90
61253;DHT22;47127;47.516;8.596;2022-09-14T08:07:31;22.50;99.90
61253;DHT22;47127;47.516;8.596;2022-09-14T08:09:56;22.60;99.90
61253;DHT22;47127;47.516;8.596;2022-09-14T08:12:22;22.60;99.90
61253;DHT22;47127;47.516;8.596;2022-09-14T08:14:48;22.60;99.90
61253;DHT22;47127;47.516;8.596;2022-09-14T08:17:15;22.50;99.90
61253;DHT22;47127;47.516;8.596;2022-09-14T08:19:41;22.50;99.90
61253;DHT22;47127;47.516;8.596;2022-09-14T08:22:07;22.60;99.90
61253;DHT22;47127;47.516;8.596;2022-09-14T08:24:32;22.70;99.90
61253;DHT22;47127;47.516;8.596;2022-09-14T08:26:58;22.70;99.90
61253;DHT22;47127;47.516;8.596;2022-09-14T08:29:24;22.80;99.90
61253;DHT22;47127;47.516;8.596;2022-09-14T08:31:50;22.80;99.90
61253;DHT22;47127;47.516;8.596;2022-09-14T08:34:17;22.70;99.90
61253;DHT22;47127;47.516;8.596;2022-09-14T08:36:44;22.70;99.90
61253;DHT22;47127;47.516;8.596;2022-09-14T08:39:12;22.70;99.90
61253;DHT22;47127;47.516;8.596;2022-09-14T08:41:52;22.70;99.90
61253;DHT22;47127;47.516;8.596;2022-09-14T08:44:51;22.70;99.90
61253;DHT22;47127;47.516;8.596;2022-09-14T08:47:27;22.70;99.90
61253;DHT22;47127;47.516;8.596;2022-09-14T08:50:15;22.90;99.90
61253;DHT22;47127;47.516;8.596;2022-09-14T08:52:46;22.70;99.90
61253;DHT22;47127;47.516;8.596;2022-09-14T08:55:45;22.70;99.90
61253;DHT22;47127;47.516;8.596;2022-09-14T09:04:04;22.60;99.90
61253;DHT22;47127;47.516;8.596;2022-09-14T09:06:40;22.70;99.90
61253;DHT22;47127;47.516;8.596;2022-09-14T09:11:51;22.90;99.90
61253;DHT22;47127;47.516;8.596;2022-09-14T09:14:40;23.10;99.90
61253;DHT22;47127;47.516;8.596;2022-09-14T09:17:24;23.20;99.90
61253;DHT22;47127;47.516;8.596;2022-09-14T09:20:08;23.20;99.90
61253;DHT22;47127;47.516;8.596;2022-09-14T09:22:41;23.20;99.90
61253;DHT22;47127;47.516;8.596;2022-09-14T09:25:23;23.20;99.90
61253;DHT22;47127;47.516;8.596;2022-09-14T09:27:54;23.30;99.90
61253;DHT22;47127;47.516;8.596;2022-09-14T09:30:20;23.20;99.90
61253;DHT22;47127;47.516;8.596;2022-09-14T09:32:46;23.30;99.90
61253;DHT22;47127;47.516;8.596;2022-09-14T09:35:22;23.30;99.90
61253;DHT22;47127;47.516;8.596;2022-09-14T09:37:48;23.30;99.90
61253;DHT22;47127;47.516;8.596;2022-09-14T09:40:34;23.40;99.90
61253;DHT22;47127;47.516;8.596;2022-09-14T09:48:16;23.40;99.90
61253;DHT22;47127;47.516;8.596;2022-09-14T09:51:09;23.20;99.90
61253;DHT22;47127;47.516;8.596;2022-09-14T09:53:48;23.30;99.90
61253;DHT22;47127;47.516;8.596;2022-09-14T09:56:36;23.40;99.90
61253;DHT22;47127;47.516;8.596;2022-09-14T09:59:02;23.50;99.90
61253;DHT22;47127;47.516;8.596;2022-09-14T10:01:33;23.50;99.90
61253;DHT22;47127;47.516;8.596;2022-09-14T10:04:05;23.50;99.90
61253;DHT22;47127;47.516;8.596;2022-09-14T10:06:42;23.40;99.90
61253;DHT22;47127;47.516;8.596;2022-09-14T10:09:17;23.40;99.90
61253;DHT22;47127;47.516;8.596;2022-09-14T10:11:44;23.50;99.90
61253;DHT22;47127;47.516;8.596;2022-09-14T10:14:31;23.50;99.90
61253;DHT22;47127;47.516;8.596;2022-09-14T10:17:17;23.50;99.90
61253;DHT22;47127;47.516;8.596;2022-09-14T10:22:29;23.80;99.90
61253;DHT22;47127;47.516;8.596;2022-09-14T10:25:02;23.90;99.90
61253;DHT22;47127;47.516;8.596;2022-09-14T10:29:59;23.90;99.90
61253;DHT22;47127;47.516;8.596;2022-09-14T10:32:27;24.00;99.90
61253;DHT22;47127;47.516;8.596;2022-09-14T10:34:54;24.10;99.90
61253;DHT22;47127;47.516;8.596;2022-09-14T10:40:18;24.30;99.90
61253;DHT22;47127;47.516;8.596;2022-09-14T10:45:19;23.90;99.90
61253;DHT22;47127;47.516;8.596;2022-09-14T10:53:06;24.00;99.90
61253;DHT22;47127;47.516;8.596;2022-09-14T11:01:10;23.70;99.90
61253;DHT22;47127;47.516;8.596;2022-09-14T11:09:54;24.20;99.90
61253;DHT22;47127;47.516;8.596;2022-09-14T11:24:10;24.00;99.90
61253;DHT22;47127;47.516;8.596;2022-09-14T11:26:38;24.20;99.90
61253;DHT22;47127;47.516;8.596;2022-09-14T11:29:16;24.20;99.90
61253;DHT22;47127;47.516;8.596;2022-09-14T11:31:46;24.10;99.90
61253;DHT22;47127;47.516;8.596;2022-09-14T11:37:24;24.10;99.90
61253;DHT22;47127;47.516;8.596;2022-09-14T11:42:48;24.00;99.90
61253;DHT22;47127;47.516;8.596;2022-09-14T11:45:28;24.00;99.90
61253;DHT22;47127;47.516;8.596;2022-09-14T11:48:12;24.00;99.90
61253;DHT22;47127;47.516;8.596;2022-09-14T11:50:41;24.10;99.90
61253;DHT22;47127;47.516;8.596;2022-09-14T11:53:14;24.20;99.90
61253;DHT22;47127;47.516;8.596;2022-09-14T11:55:44;24.30;99.90
61253;DHT22;47127;47.516;8.596;2022-09-14T11:58:20;24.20;99.90
61253;DHT22;47127;47.516;8.596;2022-09-14T12:01:09;24.20;99.90
61253;DHT22;47127;47.516;8.596;2022-09-14T12:11:57;24.00;99.90
61253;DHT22;47127;47.516;8.596;2022-09-14T12:19:45;23.90;99.90
61253;DHT22;47127;47.516;8.596;2022-09-14T12:22:31;23.80;99.90
61253;DHT22;47127;47.516;8.596;2022-09-14T12:27:36;23.70;99.90
61253;DHT22;47127;47.516;8.596;2022-09-14T12:46:02;23.10;99.90
61253;DHT22;47127;47.516;8.596;2022-09-14T12:57:14;22.70;99.90
61253;DHT22;47127;47.516;8.596;2022-09-14T13:00:00;22.60;99.90
61253;DHT22;47127;47.516;8.596;2022-09-14T13:03:35;22.50;99.90
61253;DHT22;47127;47.516;8.596;2022-09-14T13:05:30;22.40;99.90
61253;DHT22;47127;47.516;8.596;2022-09-14T13:07:57;22.30;99.90
61253;DHT22;47127;47.516;8.596;2022-09-14T13:10:32;22.30;99.90
61253;DHT22;47127;47.516;8.596;2022-09-14T13:13:05;22.30;99.90
61253;DHT22;47127;47.516;8.596;2022-09-14T13:15:36;22.30;99.90
61253;DHT22;47127;47.516;8.596;2022-09-14T13:18:28;22.20;99.90
61253;DHT22;47127;47.516;8.596;2022-09-14T13:20:57;22.20;99.90
61253;DHT22;47127;47.516;8.596;2022-09-14T13:23:29;22.20;99.90
61253;DHT22;47127;47.516;8.596;2022-09-14T13:25:56;22.20;99.90
61253;DHT22;47127;47.516;8.596;2022-09-14T13:28:23;22.20;99.90
61253;DHT22;47127;47.516;8.596;2022-09-14T13:30:55;22.10;99.90
61253;DHT22;47127;47.516;8.596;2022-09-14T13:33:22;22.10;99.90
61253;DHT22;47127;47.516;8.596;2022-09-14T13:35:53;22.20;99.90
61253;DHT22;47127;47.516;8.596;2022-09-14T13:38:30;22.10;99.90
61253;DHT22;47127;47.516;8.596;2022-09-14T13:41:07;22.10;99.90
61253;DHT22;47127;47.516;8.596;2022-09-14T13:43:33;22.20;99.90
61253;DHT22;47127;47.516;8.596;2022-09-14T13:45:59;22.20;99.90
61253;DHT22;47127;47.516;8.596;2022-09-14T13:48:24;22.40;99.90
61253;DHT22;47127;47.516;8.596;2022-09-14T13:50:51;22.50;99.90
61253;DHT22;47127;47.516;8.596;2022-09-14T13:56:19;22.90;99.90
61253;DHT22;47127;47.516;8.596;2022-09-14T13:58:47;23.60;99.90
61253;DHT22;47127;47.516;8.596;2022-09-14T14:01:23;23.80;99.90
61253;DHT22;47127;47.516;8.596;2022-09-14T14:03:49;24.00;99.90
61253;DHT22;47127;47.516;8.596;2022-09-14T14:06:35;24.30;99.90
61253;DHT22;47127;47.516;8.596;2022-09-14T14:09:09;24.70;99.90
61253;DHT22;47127;47.516;8.596;2022-09-14T14:11:50;25.00;99.90
61253;DHT22;47127;47.516;8.596;2022-09-14T14:19:46;25.00;99.90
61253;DHT22;47127;47.516;8.596;2022-09-14T14:24:45;24.70;99.90
61253;DHT22;47127;47.516;8.596;2022-09-14T14:27:32;24.90;99.90
61253;DHT22;47127;47.516;8.596;2022-09-14T14:30:10;25.20;99.90
61253;DHT22;47127;47.516;8.596;2022-09-14T14:32:36;25.40;99.90
61253;DHT22;47127;47.516;8.596;2022-09-14T14:35:15;25.20;99.90
61253;DHT22;47127;47.516;8.596;2022-09-14T14:37:41;25.00;99.90
61253;DHT22;47127;47.516;8.596;2022-09-14T14:40:09;24.70;99.90
61253;DHT22;47127;47.516;8.596;2022-09-14T14:42:35;24.60;99.90
61253;DHT22;47127;47.516;8.596;2022-09-14T14:45:00;24.70;99.90
61253;DHT22;47127;47.516;8.596;2022-09-14T14:47:26;24.90;99.90
61253;DHT22;47127;47.516;8.596;2022-09-14T14:49:52;25.10;99.90
61253;DHT22;47127;47.516;8.596;2022-09-14T14:52:18;25.00;99.90
61253;DHT22;47127;47.516;8.596;2022-09-14T14:54:43;24.80;99.90
61253;DHT22;47127;47.516;8.596;2022-09-14T14:57:09;24.20;99.90
61253;DHT22;47127;47.516;8.596;2022-09-14T14:59:35;24.10;99.90
61253;DHT22;47127;47.516;8.596;2022-09-14T15:02:01;23.90;99.90
61253;DHT22;47127;47.516;8.596;2022-09-14T15:04:27;23.90;99.90
61253;DHT22;47127;47.516;8.596;2022-09-14T15:06:52;23.80;99.90
61253;DHT22;47127;47.516;8.596;2022-09-14T15:09:22;23.90;99.90
61253;DHT22;47127;47.516;8.596;2022-09-14T15:11:48;24.10;99.90
61253;DHT22;47127;47.516;8.596;2022-09-14T15:14:17;23.80;99.90
61253;DHT22;47127;47.516;8.596;2022-09-14T15:16:43;23.70;99.90
61253;DHT22;47127;47.516;8.596;2022-09-14T15:19:10;23.50;99.90
61253;DHT22;47127;47.516;8.596;2022-09-14T15:21:36;23.60;99.90
61253;DHT22;47127;47.516;8.596;2022-09-14T15:24:02;23.60;99.90
61253;DHT22;47127;47.516;8.596;2022-09-14T15:26:28;23.60;99.90
61253;DHT22;47127;47.516;8.596;2022-09-14T15:28:54;23.30;99.90
61253;DHT22;47127;47.516;8.596;2022-09-14T15:31:19;23.20;99.90
61253;DHT22;47127;47.516;8.596;2022-09-14T15:33:45;23.30;99.90
61253;DHT22;47127;47.516;8.596;2022-09-14T15:36:10;23.60;99.90
61253;DHT22;47127;47.516;8.596;2022-09-14T15:38:37;24.10;99.90
61253;DHT22;47127;47.516;8.596;2022-09-14T15:41:03;24.60;99.90
61253;DHT22;47127;47.516;8.596;2022-09-14T15:43:28;24.90;99.90
61253;DHT22;47127;47.516;8.596;2022-09-14T15:45:54;25.10;99.90
61253;DHT22;47127;47.516;8.596;2022-09-14T15:48:20;25.60;99.90
61253;DHT22;47127;47.516;8.596;2022-09-14T15:50:46;25.70;99.90
61253;DHT22;47127;47.516;8.596;2022-09-14T15:53:14;25.70;99.90
61253;DHT22;47127;47.516;8.596;2022-09-14T15:55:41;25.40;99.90
61253;DHT22;47127;47.516;8.596;2022-09-14T15:58:08;25.20;99.90
61253;DHT22;47127;47.516;8.596;2022-09-14T16:00:35;25.50;99.90
61253;DHT22;47127;47.516;8.596;2022-09-14T16:03:01;25.60;99.90
61253;DHT22;47127;47.516;8.596;2022-09-14T16:05:28;25.80;99.90
61253;DHT22;47127;47.516;8.596;2022-09-14T16:07:55;26.00;99.90
61253;DHT22;47127;47.516;8.596;2022-09-14T16:10:22;26.30;99.90
61253;DHT22;47127;47.516;8.596;2022-09-14T16:12:51;26.30;99.90
61253;DHT22;47127;47.516;8.596;2022-09-14T16:15:17;26.10;99.90
61253;DHT22;47127;47.516;8.596;2022-09-14T16:17:42;25.70;99.90
61253;DHT22;47127;47.516;8.596;2022-09-14T16:20:08;25.80;99.90
61253;DHT22;47127;47.516;8.596;2022-09-14T16:22:35;25.80;99.90
61253;DHT22;47127;47.516;8.596;2022-09-14T16:25:00;25.80;99.90
61253;DHT22;47127;47.516;8.596;2022-09-14T16:27:26;25.40;99.90
61253;DHT22;47127;47.516;8.596;2022-09-14T16:29:51;25.10;99.90
61253;DHT22;47127;47.516;8.596;2022-09-14T16:32:17;24.80;99.90
61253;DHT22;47127;47.516;8.596;2022-09-14T16:34:42;24.40;99.90
61253;DHT22;47127;47.516;8.596;2022-09-14T16:37:08;24.10;99.90
61253;DHT22;47127;47.516;8.596;2022-09-14T16:39:34;23.70;99.90
61253;DHT22;47127;47.516;8.596;2022-09-14T16:41:59;23.50;99.90
61253;DHT22;47127;47.516;8.596;2022-09-14T16:44:26;23.10;99.90
61253;DHT22;47127;47.516;8.596;2022-09-14T16:46:53;22.90;99.90
61253;DHT22;47127;47.516;8.596;2022-09-14T16:49:20;22.70;99.90
61253;DHT22;47127;47.516;8.596;2022-09-14T16:51:45;22.60;99.90
61253;DHT22;47127;47.516;8.596;2022-09-14T16:54:16;22.50;99.90
61253;DHT22;47127;47.516;8.596;2022-09-14T16:56:43;22.50;99.90
61253;DHT22;47127;47.516;8.596;2022-09-14T16:59:09;22.40;99.90
61253;DHT22;47127;47.516;8.596;2022-09-14T17:01:38;22.40;99.90
61253;DHT22;47127;47.516;8.596;2022-09-14T17:04:07;22.20;99.90
61253;DHT22;47127;47.516;8.596;2022-09-14T17:06:35;22.10;99.90
61253;DHT22;47127;47.516;8.596;2022-09-14T17:09:04;21.90;99.90
61253;DHT22;47127;47.516;8.596;2022-09-14T17:11:31;21.80;99.90
61253;DHT22;47127;47.516;8.596;2022-09-14T17:13:57;21.90;99.90
61253;DHT22;47127;47.516;8.596;2022-09-14T17:16:24;21.80;99.90
61253;DHT22;47127;47.516;8.596;2022-09-14T17:18:51;21.70;99.90
61253;DHT22;47127;47.516;8.596;2022-09-14T17:21:22;21.50;99.90
61253;DHT22;47127;47.516;8.596;2022-09-14T17:23:48;21.40;99.90
61253;DHT22;47127;47.516;8.596;2022-09-14T17:26:15;21.20;99.90
61253;DHT22;47127;47.516;8.596;2022-09-14T17:28:43;21.00;99.90
61253;DHT22;47127;47.516;8.596;2022-09-14T17:31:17;21.00;99.90
61253;DHT22;47127;47.516;8.596;2022-09-14T17:33:43;21.00;99.90
61253;DHT22;47127;47.516;8.596;2022-09-14T17:36:08;21.00;99.90
61253;DHT22;47127;47.516;8.596;2022-09-14T17:38:37;20.90;99.90
61253;DHT22;47127;47.516;8.596;2022-09-14T17:41:05;21.00;99.90
61253;DHT22;47127;47.516;8.596;2022-09-14T17:43:32;20.90;99.90
61253;DHT22;47127;47.516;8.596;2022-09-14T17:45:58;20.80;99.90
61253;DHT22;47127;47.516;8.596;2022-09-14T17:48:25;20.80;99.90
61253;DHT22;47127;47.516;8.596;2022-09-14T17:50:52;20.70;99.90
61253;DHT22;47127;47.516;8.596;2022-09-14T17:53:17;20.70;99.90
61253;DHT22;47127;47.516;8.596;2022-09-14T17:55:45;20.70;99.90
61253;DHT22;47127;47.516;8.596;2022-09-14T17:58:10;20.60;99.90
61253;DHT22;47127;47.516;8.596;2022-09-14T18:00:36;20.50;99.90
61253;DHT22;47127;47.516;8.596;2022-09-14T18:03:01;20.50;99.90
61253;DHT22;47127;47.516;8.596;2022-09-14T18:05:27;20.50;99.90
61253;DHT22;47127;47.516;8.596;2022-09-14T18:07:53;20.60;99.90
61253;DHT22;47127;47.516;8.596;2022-09-14T18:10:19;20.60;99.90
61253;DHT22;47127;47.516;8.596;2022-09-14T18:12:47;20.60;99.90
61253;DHT22;47127;47.516;8.596;2022-09-14T18:15:15;20.50;99.90